Time;durP1;ratioP1;P1;durP2;ratioP2;P2;SDS_P1;SDS_P2;PMS_P1;PMS_P2;Temp;Humidity;BMP_temperature;BMP_pressure;BME280_temperature;BME280_humidity;BME280_pressure;Samples;Min_cycle;Max_cycle;Signal;HPM_P1;HPM_P2
2023/06/03 00:01:56;;;;;;;10.60;3.30;;;13.40;99.90;;;;;;5135993;27;20205;-43
2023/06/03 00:04:21;;;;;;;8.73;3.00;;;13.40;99.90;;;;;;5135761;27;20201;-44
2023/06/03 00:06:47;;;;;;;8.03;2.97;;;13.40;99.90;;;;;;5135696;27;20195;-43
2023/06/03 00:09:13;;;;;;;14.53;3.67;;;13.40;99.90;;;;;;5135682;27;20185;-43
2023/06/03 00:11:39;;;;;;;11.23;3.27;;;13.30;99.90;;;;;;5135990;27;20190;-43
2023/06/03 00:14:05;;;;;;;8.93;3.20;;;13.30;99.90;;;;;;5135965;27;20213;-43
2023/06/03 00:16:34;;;;;;;6.63;3.13;;;13.20;99.90;;;;;;5135822;27;20181;-43
2023/06/03 00:19:00;;;;;;;8.27;2.60;;;13.20;99.90;;;;;;5136262;27;20177;-43
2023/06/03 00:21:27;;;;;;;9.17;3.00;;;13.20;99.90;;;;;;5136599;27;20208;-43
2023/06/03 00:23:53;;;;;;;13.23;2.90;;;13.20;99.90;;;;;;5135993;27;20592;-44
2023/06/03 00:26:20;;;;;;;9.57;3.40;;;13.10;99.90;;;;;;5135599;27;20216;-43
2023/06/03 00:28:46;;;;;;;8.87;3.37;;;13.10;99.90;;;;;;5135434;27;20193;-43
2023/06/03 00:31:11;;;;;;;8.90;2.70;;;13.10;99.90;;;;;;5135237;27;20174;-42
2023/06/03 00:33:37;;;;;;;7.60;3.30;;;13.00;99.90;;;;;;5135064;27;20236;-43
2023/06/03 00:36:03;;;;;;;6.40;3.47;;;13.00;99.90;;;;;;5135445;27;20214;-42
2023/06/03 00:38:28;;;;;;;8.67;3.30;;;13.00;99.90;;;;;;5134965;27;20180;-43
2023/06/03 00:40:54;;;;;;;8.17;3.03;;;12.90;99.90;;;;;;5134933;27;20246;-42
2023/06/03 00:43:19;;;;;;;6.87;3.20;;;12.90;99.90;;;;;;5135428;27;20532;-42
2023/06/03 00:45:45;;;;;;;7.30;3.17;;;12.90;99.90;;;;;;5135274;27;20196;-43
2023/06/03 00:48:11;;;;;;;10.60;3.33;;;12.80;99.90;;;;;;5134965;27;20182;-42
2023/06/03 00:50:39;;;;;;;7.97;3.30;;;12.80;99.90;;;;;;5134934;27;20184;-42
2023/06/03 00:53:05;;;;;;;10.27;3.30;;;12.80;99.90;;;;;;5134762;27;20637;-44
2023/06/03 00:55:31;;;;;;;6.73;3.37;;;12.80;99.90;;;;;;5134742;27;20184;-43
2023/06/03 00:57:57;;;;;;;6.93;3.00;;;12.70;99.90;;;;;;5135050;27;20531;-41
2023/06/03 01:00:22;;;;;;;6.17;3.50;;;12.70;99.90;;;;;;5134878;27;20258;-42
2023/06/03 01:02:48;;;;;;;8.03;3.07;;;12.70;99.90;;;;;;5134791;27;20536;-42
2023/06/03 01:05:14;;;;;;;7.97;3.20;;;12.60;99.90;;;;;;5134677;27;20174;-43
2023/06/03 01:07:46;;;;;;;9.73;3.40;;;12.60;99.90;;;;;;5134865;27;20183;-44
2023/06/03 01:10:31;;;;;;;9.33;3.93;;;12.60;99.90;;;;;;5134872;27;20212;-41
2023/06/03 01:13:15;;;;;;;10.43;3.60;;;12.50;99.90;;;;;;5134776;27;20154;-43
2023/06/03 01:15:43;;;;;;;8.57;3.50;;;12.50;99.90;;;;;;5135894;27;20573;-42
2023/06/03 01:18:14;;;;;;;11.80;3.97;;;12.50;99.90;;;;;;5134717;27;20175;-41
2023/06/03 01:20:40;;;;;;;7.63;2.83;;;12.40;99.90;;;;;;5134592;28;20280;-41
2023/06/03 01:23:23;;;;;;;8.97;3.17;;;12.40;99.90;;;;;;5134614;28;20298;-43
2023/06/03 01:25:52;;;;;;;7.67;3.70;;;12.30;99.90;;;;;;5134521;28;20157;-42
2023/06/03 01:28:20;;;;;;;12.57;3.83;;;12.30;99.90;;;;;;5134886;28;20635;-43
2023/06/03 01:30:46;;;;;;;9.13;2.97;;;12.30;99.90;;;;;;5134356;28;20645;-42
2023/06/03 01:33:12;;;;;;;6.97;3.43;;;12.30;99.90;;;;;;5134140;28;20300;-43
2023/06/03 01:35:39;;;;;;;8.87;3.67;;;12.30;99.90;;;;;;5134653;28;20222;-40
2023/06/03 01:38:06;;;;;;;12.23;3.40;;;12.20;99.90;;;;;;5134185;28;20173;-42
2023/06/03 01:40:33;;;;;;;9.73;3.20;;;12.20;99.90;;;;;;5134179;27;20197;-44
2023/06/03 01:42:59;;;;;;;8.03;3.03;;;12.20;99.90;;;;;;5137730;27;20181;-42
2023/06/03 01:45:25;;;;;;;5.50;3.37;;;12.10;99.90;;;;;;5139020;27;20653;-42
2023/06/03 01:47:50;;;;;;;7.77;3.13;;;12.10;99.90;;;;;;5138509;27;20215;-42
2023/06/03 01:50:17;;;;;;;8.77;3.70;;;12.10;99.90;;;;;;5138624;27;20174;-42
2023/06/03 01:52:44;;;;;;;9.90;3.60;;;12.10;99.90;;;;;;5138259;27;20189;-42
2023/06/03 01:55:10;;;;;;;11.20;3.27;;;12.10;99.90;;;;;;5138431;27;20216;-42
2023/06/03 01:57:36;;;;;;;14.80;3.87;;;12.00;99.90;;;;;;5138325;27;20173;-43
2023/06/03 02:00:06;;;;;;;8.33;3.30;;;12.00;99.90;;;;;;5138439;27;20589;-42
2023/06/03 02:02:32;;;;;;;11.07;4.17;;;11.90;99.90;;;;;;5138734;27;20237;-42
2023/06/03 02:04:57;;;;;;;9.20;3.87;;;12.00;99.90;;;;;;5138043;27;20280;-43
2023/06/03 02:07:25;;;;;;;13.37;4.07;;;11.90;99.90;;;;;;5138534;27;20203;-42
2023/06/03 02:09:52;;;;;;;8.90;3.60;;;11.80;99.90;;;;;;5138245;27;20182;-43
2023/06/03 02:12:19;;;;;;;9.47;3.30;;;11.80;99.90;;;;;;5138280;27;20273;-41
2023/06/03 02:14:45;;;;;;;9.10;3.53;;;11.70;99.90;;;;;;5137693;27;20212;-42
2023/06/03 02:17:11;;;;;;;12.30;3.97;;;11.60;99.90;;;;;;5137818;27;20181;-42
2023/06/03 02:19:37;;;;;;;7.70;3.80;;;11.60;99.90;;;;;;5137966;27;20177;-41
2023/06/03 02:22:05;;;;;;;12.37;4.37;;;11.50;99.90;;;;;;5137649;27;20700;-42
2023/06/03 02:24:32;;;;;;;9.47;4.03;;;11.50;99.90;;;;;;5137595;27;20245;-42
2023/06/03 02:27:01;;;;;;;10.57;3.97;;;11.40;99.90;;;;;;5137559;27;20173;-43
2023/06/03 02:29:27;;;;;;;8.37;3.63;;;11.40;99.90;;;;;;5137870;27;20561;-44
2023/06/03 02:31:57;;;;;;;9.60;3.87;;;11.30;99.90;;;;;;5137722;27;20182;-43
2023/06/03 02:34:23;;;;;;;7.80;4.13;;;11.30;99.90;;;;;;5137313;27;20723;-40
2023/06/03 02:36:49;;;;;;;7.63;3.70;;;11.20;99.90;;;;;;5137396;27;20181;-41
2023/06/03 02:39:16;;;;;;;7.93;3.70;;;11.20;99.90;;;;;;5137660;27;20177;-42
2023/06/03 02:41:42;;;;;;;8.83;4.00;;;11.10;99.90;;;;;;5137090;27;20202;-42
2023/06/03 02:44:08;;;;;;;6.83;3.53;;;11.10;99.90;;;;;;5137167;27;20194;-42
2023/06/03 02:46:33;;;;;;;8.83;3.97;;;11.00;99.90;;;;;;5137444;27;20166;-41
2023/06/03 02:49:03;;;;;;;6.37;3.70;;;11.00;99.90;;;;;;5119212;27;20212;-44
2023/06/03 02:51:29;;;;;;;11.33;4.07;;;11.00;99.90;;;;;;5137875;27;20169;-44
2023/06/03 02:53:55;;;;;;;8.53;3.20;;;10.90;99.90;;;;;;5136808;27;20201;-41
2023/06/03 02:56:22;;;;;;;6.33;3.27;;;11.00;99.90;;;;;;5137023;27;20173;-41
2023/06/03 02:58:48;;;;;;;9.30;3.73;;;11.00;99.90;;;;;;5137387;27;20189;-42
2023/06/03 03:01:14;;;;;;;10.13;3.80;;;11.00;99.90;;;;;;5136839;27;20201;-43
2023/06/03 03:03:40;;;;;;;8.90;3.77;;;11.00;99.90;;;;;;5136958;27;20232;-42
2023/06/03 03:06:06;;;;;;;8.40;3.43;;;10.90;99.90;;;;;;5137061;27;20180;-41
2023/06/03 03:08:33;;;;;;;6.00;3.47;;;11.00;99.90;;;;;;5136940;27;20173;-43
2023/06/03 03:10:58;;;;;;;8.87;3.57;;;11.00;99.90;;;;;;5136747;27;20173;-43
2023/06/03 03:13:24;;;;;;;7.70;3.23;;;11.00;99.90;;;;;;5137118;27;20561;-41
2023/06/03 03:15:50;;;;;;;7.30;3.33;;;11.00;99.90;;;;;;5136753;27;20335;-43
2023/06/03 03:18:15;;;;;;;9.20;3.73;;;11.00;99.90;;;;;;5136628;27;20174;-40
2023/06/03 03:20:41;;;;;;;8.40;3.83;;;10.90;99.90;;;;;;5136711;27;20661;-39
2023/06/03 03:23:07;;;;;;;4.47;3.60;;;10.90;99.90;;;;;;5137120;27;20189;-42
2023/06/03 03:25:36;;;;;;;6.70;3.43;;;10.90;99.90;;;;;;5136662;27;20162;-41
2023/06/03 03:28:01;;;;;;;9.30;4.03;;;10.80;99.90;;;;;;5136431;27;20646;-42
2023/06/03 03:30:27;;;;;;;7.07;4.00;;;10.80;99.90;;;;;;5136531;27;20184;-42
2023/06/03 03:32:53;;;;;;;15.60;4.00;;;10.80;99.90;;;;;;5136365;27;20687;-42
2023/06/03 03:35:21;;;;;;;9.73;3.73;;;10.80;99.90;;;;;;5136150;27;20586;-40
2023/06/03 03:37:54;;;;;;;11.10;3.80;;;10.70;99.90;;;;;;5136041;27;20264;-39
2023/06/03 03:40:22;;;;;;;8.43;3.80;;;10.70;99.90;;;;;;5136014;27;20224;-42
2023/06/03 03:42:52;;;;;;;6.40;3.37;;;10.70;99.90;;;;;;5135899;27;20181;-39
2023/06/03 03:45:20;;;;;;;7.63;3.57;;;10.60;99.90;;;;;;5136553;27;20529;-41
2023/06/03 03:47:50;;;;;;;11.27;3.30;;;10.70;99.90;;;;;;5136246;27;20176;-40
2023/06/03 03:50:30;;;;;;;8.53;4.23;;;10.60;99.90;;;;;;5135909;27;20188;-43
2023/06/03 03:53:01;;;;;;;10.73;3.60;;;10.60;99.90;;;;;;5135995;27;20154;-41
2023/06/03 03:55:26;;;;;;;8.13;3.60;;;10.60;99.90;;;;;;5136102;27;20161;-40
2023/06/03 03:57:52;;;;;;;9.13;4.10;;;10.60;99.90;;;;;;5136277;27;20515;-43
2023/06/03 04:00:19;;;;;;;8.73;4.13;;;10.60;99.90;;;;;;5136103;27;20181;-41
2023/06/03 04:02:46;;;;;;;9.53;4.30;;;10.60;99.90;;;;;;5135836;27;20184;-43
2023/06/03 04:05:15;;;;;;;11.90;4.07;;;10.60;99.90;;;;;;5135117;27;20203;-41
2023/06/03 04:07:43;;;;;;;6.47;3.57;;;10.60;99.90;;;;;;5135845;27;20645;-41
2023/06/03 04:10:11;;;;;;;14.47;4.20;;;10.60;99.90;;;;;;5135689;27;20173;-43
2023/06/03 04:12:36;;;;;;;8.63;3.87;;;10.60;99.90;;;;;;5135404;27;20544;-42
2023/06/03 04:15:02;;;;;;;10.73;3.50;;;10.70;99.90;;;;;;5135344;27;20197;-41
2023/06/03 04:17:30;;;;;;;10.60;3.30;;;10.60;99.90;;;;;;5135291;27;20260;-40
2023/06/03 04:19:56;;;;;;;8.10;3.87;;;10.70;99.90;;;;;;5135577;27;20201;-43
2023/06/03 04:22:24;;;;;;;5.97;3.00;;;10.70;99.90;;;;;;5135253;27;20200;-43
2023/06/03 04:25:07;;;;;;;9.80;4.00;;;10.70;99.90;;;;;;5135943;27;20204;-42
2023/06/03 04:27:32;;;;;;;11.07;3.90;;;10.70;99.90;;;;;;5135447;27;20160;-43
2023/06/03 04:29:58;;;;;;;6.73;3.30;;;10.70;99.90;;;;;;5135086;27;20170;-42
2023/06/03 04:32:24;;;;;;;6.63;3.67;;;10.70;99.90;;;;;;5134920;27;20242;-42
2023/06/03 04:34:52;;;;;;;8.93;3.87;;;10.70;99.90;;;;;;5135259;27;20242;-43
2023/06/03 04:37:18;;;;;;;8.50;3.63;;;10.70;99.90;;;;;;5134968;27;20182;-44
2023/06/03 04:39:43;;;;;;;8.47;3.50;;;10.70;99.90;;;;;;5135008;27;20263;-42
2023/06/03 04:42:10;;;;;;;7.90;3.90;;;10.80;99.90;;;;;;5116372;27;20346;-44
2023/06/03 04:44:40;;;;;;;7.87;3.60;;;10.80;99.90;;;;;;5135347;27;20189;-41
2023/06/03 04:47:10;;;;;;;12.50;4.67;;;10.90;99.90;;;;;;5135081;27;20526;-42
2023/06/03 04:49:39;;;;;;;9.83;4.10;;;10.90;99.90;;;;;;5135273;27;20212;-42
2023/06/03 04:52:12;;;;;;;8.73;4.00;;;11.00;99.90;;;;;;5134786;27;20256;-42
2023/06/03 04:54:40;;;;;;;9.60;4.40;;;11.10;99.90;;;;;;5134909;27;20206;-43
2023/06/03 04:57:06;;;;;;;9.77;4.17;;;11.10;99.90;;;;;;5134816;27;20187;-42
2023/06/03 04:59:31;;;;;;;7.70;3.57;;;11.20;99.90;;;;;;5135088;27;20172;-42
2023/06/03 05:01:57;;;;;;;6.80;4.00;;;11.30;99.90;;;;;;5135402;27;20552;-42
2023/06/03 05:04:23;;;;;;;11.10;4.30;;;11.40;99.90;;;;;;5135586;27;20200;-43
2023/06/03 05:06:49;;;;;;;8.53;3.83;;;11.40;99.90;;;;;;5135854;27;20225;-43
2023/06/03 05:09:15;;;;;;;11.27;4.30;;;11.50;99.90;;;;;;5134496;27;20246;-42
2023/06/03 05:11:42;;;;;;;11.30;4.07;;;11.50;99.90;;;;;;5134432;27;20185;-41
2023/06/03 05:14:08;;;;;;;12.63;4.57;;;11.60;99.90;;;;;;5134309;27;20563;-44
2023/06/03 05:16:37;;;;;;;16.83;4.10;;;11.70;99.90;;;;;;5134641;27;20580;-42
2023/06/03 05:19:03;;;;;;;11.77;4.20;;;11.70;99.90;;;;;;5134473;27;20223;-43
2023/06/03 05:21:28;;;;;;;11.93;4.43;;;11.80;99.90;;;;;;5115921;28;20256;-41
2023/06/03 05:23:54;;;;;;;7.47;3.80;;;11.80;99.90;;;;;;5134207;28;20245;-42
2023/06/03 05:26:20;;;;;;;8.57;3.70;;;11.90;99.90;;;;;;5134507;28;20184;-43
2023/06/03 05:28:48;;;;;;;10.30;4.00;;;12.00;99.90;;;;;;5134525;28;20181;-42
2023/06/03 05:31:14;;;;;;;9.23;4.07;;;12.00;99.90;;;;;;5134061;28;20656;-41
2023/06/03 05:33:41;;;;;;;8.00;3.60;;;12.10;99.90;;;;;;5134114;28;20321;-43
2023/06/03 05:36:10;;;;;;;7.27;3.33;;;12.20;99.90;;;;;;5134478;28;20572;-41
2023/06/03 05:38:36;;;;;;;11.93;3.97;;;12.20;99.90;;;;;;5134201;28;20173;-42
2023/06/03 05:41:03;;;;;;;12.63;3.87;;;12.30;99.90;;;;;;5134090;28;20557;-42
2023/06/03 05:43:29;;;;;;;7.90;3.80;;;12.40;99.90;;;;;;5134142;28;20194;-41
2023/06/03 05:45:55;;;;;;;8.87;2.87;;;12.50;99.90;;;;;;5134099;28;20191;-40
2023/06/03 05:48:21;;;;;;;6.93;3.47;;;12.60;99.90;;;;;;5134402;28;20166;-40
2023/06/03 05:50:54;;;;;;;6.40;3.03;;;12.70;99.90;;;;;;5134171;28;20173;-40
2023/06/03 05:53:21;;;;;;;6.13;3.00;;;12.70;99.90;;;;;;5134590;28;20225;-42
2023/06/03 05:55:48;;;;;;;8.13;2.57;;;12.80;99.90;;;;;;5134039;28;20261;-41
2023/06/03 05:58:13;;;;;;;11.67;3.50;;;12.90;99.90;;;;;;5133979;28;20177;-42
2023/06/03 06:00:39;;;;;;;5.57;3.00;;;13.00;99.90;;;;;;5133901;28;20204;-44
2023/06/03 06:03:05;;;;;;;8.83;2.60;;;13.10;99.90;;;;;;5134115;28;20180;-42
2023/06/03 06:05:30;;;;;;;6.10;2.97;;;13.20;99.90;;;;;;5134284;28;20182;-42
2023/06/03 06:07:56;;;;;;;8.07;3.07;;;13.30;99.90;;;;;;5134500;28;20201;-43
2023/06/03 06:10:21;;;;;;;6.67;2.57;;;13.40;99.90;;;;;;5133930;28;20228;-44
2023/06/03 06:12:47;;;;;;;7.97;2.70;;;13.50;99.90;;;;;;5134369;28;20691;-42
2023/06/03 06:15:13;;;;;;;5.03;2.47;;;13.60;99.90;;;;;;5133898;28;20260;-42
2023/06/03 06:17:38;;;;;;;11.23;3.00;;;13.80;99.90;;;;;;5134072;28;20177;-43
2023/06/03 06:20:05;;;;;;;6.07;2.27;;;14.00;99.90;;;;;;5133843;28;20606;-41
2023/06/03 06:22:31;;;;;;;5.43;2.53;;;14.20;99.90;;;;;;5133709;28;20567;-41
2023/06/03 06:24:57;;;;;;;8.67;2.60;;;14.30;99.90;;;;;;5133936;28;20201;-43
2023/06/03 06:27:23;;;;;;;8.03;2.70;;;14.50;99.90;;;;;;5134673;27;20228;-42
2023/06/03 06:29:48;;;;;;;4.60;2.33;;;14.60;99.90;;;;;;5119264;27;20650;-43
2023/06/03 06:32:27;;;;;;;8.70;2.50;;;14.80;99.90;;;;;;5137373;27;20173;-42
2023/06/03 06:34:53;;;;;;;7.67;2.50;;;14.80;99.90;;;;;;5137294;27;20205;-42
2023/06/03 06:37:19;;;;;;;13.90;2.97;;;15.10;99.90;;;;;;5137656;27;20575;-43
2023/06/03 06:39:48;;;;;;;5.23;2.23;;;15.40;99.90;;;;;;5137441;27;20174;-44
2023/06/03 06:42:23;;;;;;;3.57;1.90;;;15.40;99.90;;;;;;5137476;27;20238;-43
2023/06/03 06:44:50;;;;;;;10.00;2.40;;;15.50;99.90;;;;;;5137791;27;20545;-43
2023/06/03 06:47:27;;;;;;;4.47;1.93;;;15.70;99.90;;;;;;5137342;27;20166;-43
2023/06/03 06:49:56;;;;;;;8.67;2.13;;;15.80;99.90;;;;;;5137542;27;20170;-42
2023/06/03 06:52:24;;;;;;;10.57;2.20;;;15.80;99.90;;;;;;5137293;27;20184;-42
2023/06/03 06:54:52;;;;;;;5.57;2.70;;;15.80;99.90;;;;;;5137141;27;20252;-42
2023/06/03 06:57:24;;;;;;;7.60;2.30;;;15.90;99.90;;;;;;5137027;27;20174;-43
2023/06/03 06:59:53;;;;;;;5.60;2.13;;;16.10;99.90;;;;;;5137021;27;20538;-44
2023/06/03 07:02:20;;;;;;;5.63;2.20;;;16.20;99.90;;;;;;5137006;27;20201;-44
2023/06/03 07:04:46;;;;;;;9.40;2.40;;;16.30;99.90;;;;;;5136978;27;20194;-42
2023/06/03 07:07:12;;;;;;;9.07;2.50;;;16.40;99.90;;;;;;5137023;27;20525;-45
2023/06/03 07:09:39;;;;;;;6.97;1.80;;;16.40;99.90;;;;;;5136784;27;20173;-44
2023/06/03 07:12:05;;;;;;;5.97;1.77;;;16.50;99.90;;;;;;5136715;27;20174;-43
2023/06/03 07:14:31;;;;;;;8.57;1.97;;;16.60;99.90;;;;;;5136649;27;20242;-44
2023/06/03 07:16:56;;;;;;;14.63;2.30;;;16.80;99.90;;;;;;5137113;27;20180;-44
2023/06/03 07:19:22;;;;;;;4.07;1.73;;;17.00;99.90;;;;;;5136481;27;20630;-45
2023/06/03 07:21:48;;;;;;;2.87;1.70;;;17.10;99.90;;;;;;5136450;27;20190;-45
2023/06/03 07:24:15;;;;;;;7.83;1.70;;;17.20;99.90;;;;;;5136488;27;20212;-44
2023/06/03 07:26:40;;;;;;;5.37;1.90;;;17.30;99.90;;;;;;5136371;27;20184;-45
2023/06/03 07:29:07;;;;;;;4.43;1.53;;;17.50;99.90;;;;;;5136463;27;20170;-44
2023/06/03 07:31:35;;;;;;;6.87;1.90;;;17.50;99.90;;;;;;5136356;27;20545;-44
2023/06/03 07:34:01;;;;;;;5.33;1.73;;;17.70;99.90;;;;;;5136121;27;20221;-43
2023/06/03 07:36:27;;;;;;;6.63;1.73;;;17.70;99.90;;;;;;5136216;27;20170;-43
2023/06/03 07:39:11;;;;;;;10.40;1.97;;;17.90;99.90;;;;;;5135654;27;20713;-44
2023/06/03 07:41:41;;;;;;;6.23;2.03;;;17.90;99.90;;;;;;5136128;27;20284;-47
2023/06/03 07:44:18;;;;;;;2.07;1.43;;;17.80;99.90;;;;;;5136094;27;20186;-45
2023/06/03 07:46:45;;;;;;;7.70;1.90;;;17.70;99.90;;;;;;5136326;27;20158;-45
2023/06/03 07:49:16;;;;;;;6.87;1.43;;;17.80;99.90;;;;;;5136173;27;20180;-45
2023/06/03 07:51:44;;;;;;;3.87;1.60;;;17.90;99.90;;;;;;5136094;27;20173;-47
2023/06/03 07:54:11;;;;;;;5.47;1.40;;;17.90;99.90;;;;;;5135996;27;20208;-45
2023/06/03 07:56:37;;;;;;;4.83;1.77;;;18.00;99.90;;;;;;5136595;27;20174;-45
2023/06/03 07:59:08;;;;;;;3.50;1.40;;;18.10;99.90;;;;;;5136252;27;20605;-43
2023/06/03 08:01:35;;;;;;;2.97;1.80;;;18.30;99.90;;;;;;5135615;27;20220;-47
2023/06/03 08:04:11;;;;;;;3.20;1.70;;;18.40;99.90;;;;;;5135748;27;20220;-45
2023/06/03 08:06:36;;;;;;;4.27;1.60;;;18.40;99.90;;;;;;5136054;27;20153;-45
2023/06/03 08:09:02;;;;;;;9.53;2.20;;;18.50;99.90;;;;;;5135783;27;20219;-47
2023/06/03 08:11:30;;;;;;;4.67;1.60;;;18.60;99.90;;;;;;5135450;27;20177;-44
2023/06/03 08:13:56;;;;;;;7.40;2.00;;;18.60;99.90;;;;;;5135376;27;20193;-44
2023/06/03 08:16:21;;;;;;;8.37;2.47;;;18.90;99.90;;;;;;5135628;27;20602;-45
2023/06/03 08:18:50;;;;;;;7.33;1.73;;;18.80;99.90;;;;;;5135414;27;20252;-45
2023/06/03 08:21:17;;;;;;;8.10;1.73;;;18.80;99.90;;;;;;5135238;27;20618;-44
2023/06/03 08:23:43;;;;;;;3.67;1.70;;;18.90;99.90;;;;;;5135560;27;20200;-45
2023/06/03 08:26:10;;;;;;;3.70;1.83;;;18.80;99.90;;;;;;5135180;27;20268;-44
2023/06/03 08:28:40;;;;;;;12.03;1.87;;;18.70;99.90;;;;;;5135234;27;20188;-44
2023/06/03 08:31:06;;;;;;;4.50;1.87;;;18.70;99.90;;;;;;5135275;27;20188;-44
2023/06/03 08:33:32;;;;;;;5.57;1.70;;;18.80;99.90;;;;;;5134867;27;20296;-44
2023/06/03 08:35:57;;;;;;;4.67;1.70;;;18.90;99.90;;;;;;5135026;27;20291;-43
2023/06/03 08:38:23;;;;;;;4.97;1.80;;;19.00;99.90;;;;;;5135011;27;20226;-45
2023/06/03 08:40:50;;;;;;;3.27;2.07;;;19.00;99.90;;;;;;5135157;27;20190;-43
2023/06/03 08:43:16;;;;;;;5.33;1.70;;;19.00;99.90;;;;;;5134849;27;20211;-44
2023/06/03 08:46:09;;;;;;;4.27;1.77;;;19.00;99.90;;;;;;5135119;27;20176;-45
2023/06/03 08:48:48;;;;;;;4.20;1.87;;;19.10;99.90;;;;;;5116398;27;20165;-44
2023/06/03 08:51:15;;;;;;;3.40;1.87;;;19.20;99.90;;;;;;5134478;27;20157;-44
2023/06/03 08:53:48;;;;;;;3.63;1.60;;;19.30;99.90;;;;;;5134856;27;20270;-44
2023/06/03 08:56:17;;;;;;;6.97;2.07;;;19.40;99.90;;;;;;5134971;27;20249;-45
2023/06/03 08:58:47;;;;;;;11.07;1.83;;;19.50;99.90;;;;;;5134905;27;20204;-45
2023/06/03 09:01:16;;;;;;;5.90;1.70;;;19.60;99.90;;;;;;5134840;27;20595;-43
2023/06/03 09:03:43;;;;;;;5.43;1.60;;;19.70;99.90;;;;;;5134791;27;20238;-43
2023/06/03 09:06:09;;;;;;;6.97;1.67;;;19.80;99.90;;;;;;5134809;27;20178;-44
2023/06/03 09:08:36;;;;;;;6.13;1.87;;;19.90;99.90;;;;;;5134411;27;20524;-45
2023/06/03 09:11:04;;;;;;;3.33;1.40;;;20.10;99.90;;;;;;5134496;27;20214;-44
2023/06/03 09:13:32;;;;;;;8.30;1.37;;;20.10;99.90;;;;;;5134327;27;20208;-45
2023/06/03 09:15:58;;;;;;;10.13;1.87;;;20.30;99.90;;;;;;5134351;27;20205;-44
2023/06/03 09:18:25;;;;;;;3.93;1.60;;;20.40;99.90;;;;;;5134380;27;20247;-45
2023/06/03 09:20:50;;;;;;;6.27;1.80;;;20.40;99.90;;;;;;5134603;27;20193;-44
2023/06/03 09:23:16;;;;;;;3.20;1.50;;;20.40;99.90;;;;;;5134278;28;20216;-44
2023/06/03 09:25:43;;;;;;;6.00;1.80;;;20.40;99.90;;;;;;5134389;28;20536;-45
2023/06/03 09:28:10;;;;;;;3.23;1.53;;;20.40;99.90;;;;;;5134203;28;20180;-45
2023/06/03 09:30:36;;;;;;;2.60;1.47;;;20.40;99.90;;;;;;5134174;28;20208;-44
2023/06/03 09:33:02;;;;;;;6.13;1.60;;;20.60;99.90;;;;;;5134031;28;20213;-44
2023/06/03 09:35:28;;;;;;;7.10;1.70;;;20.70;99.90;;;;;;5134300;28;20179;-44
2023/06/03 09:38:04;;;;;;;1.80;1.40;;;20.60;99.90;;;;;;5134185;28;20578;-46
2023/06/03 09:40:31;;;;;;;6.97;1.70;;;20.70;99.90;;;;;;5134941;28;20157;-45
2023/06/03 09:42:58;;;;;;;6.63;1.50;;;20.80;99.90;;;;;;5134119;28;20173;-43
2023/06/03 09:45:30;;;;;;;4.67;1.20;;;20.70;99.90;;;;;;5134403;28;20593;-45
2023/06/03 09:48:00;;;;;;;3.13;1.47;;;20.60;99.90;;;;;;5134239;28;20158;-45
2023/06/03 09:50:30;;;;;;;2.10;1.53;;;20.50;99.90;;;;;;5134392;28;20233;-44
2023/06/03 09:52:56;;;;;;;2.73;1.57;;;20.60;99.90;;;;;;5134016;28;20162;-44
2023/06/03 09:55:29;;;;;;;4.47;1.60;;;20.80;99.90;;;;;;5133988;28;20174;-45
2023/06/03 09:58:03;;;;;;;4.07;1.57;;;20.90;99.90;;;;;;5134270;28;20170;-45
2023/06/03 10:00:47;;;;;;;2.57;1.50;;;20.90;99.90;;;;;;5134276;28;20170;-45
2023/06/03 10:03:13;;;;;;;4.33;1.73;;;20.90;99.90;;;;;;5136686;27;20216;-44
2023/06/03 10:05:39;;;;;;;4.87;1.33;;;20.90;99.90;;;;;;5137972;27;20513;-45
2023/06/03 10:08:05;;;;;;;6.43;1.40;;;21.00;99.90;;;;;;5137862;27;20173;-45
2023/06/03 10:10:32;;;;;;;1.73;1.27;;;21.10;99.90;;;;;;5137896;27;20206;-42
2023/06/03 10:13:16;;;;;;;4.10;1.30;;;21.00;99.90;;;;;;5137795;27;20177;-45
2023/06/03 10:15:42;;;;;;;3.63;1.30;;;21.10;99.90;;;;;;5138033;27;20169;-45
2023/06/03 10:18:07;;;;;;;3.57;1.50;;;21.20;99.90;;;;;;5137811;27;20529;-46
2023/06/03 10:20:40;;;;;;;5.60;1.40;;;21.30;99.90;;;;;;5137639;27;20238;-46
2023/06/03 10:23:07;;;;;;;4.00;1.30;;;21.50;99.90;;;;;;5137877;27;20669;-45
2023/06/03 10:25:45;;;;;;;7.23;1.47;;;21.70;99.90;;;;;;5137791;27;20185;-44
2023/06/03 10:28:11;;;;;;;4.90;1.57;;;21.80;99.90;;;;;;5137603;27;20182;-44
2023/06/03 10:30:39;;;;;;;3.67;1.50;;;21.60;99.90;;;;;;5137816;27;20169;-45
2023/06/03 10:33:08;;;;;;;5.67;1.30;;;21.60;99.90;;;;;;5137303;27;20268;-45
2023/06/03 10:35:35;;;;;;;6.77;1.60;;;21.70;99.90;;;;;;5137641;27;20182;-45
2023/06/03 10:38:02;;;;;;;3.00;1.80;;;21.80;99.90;;;;;;5137593;27;20170;-44
2023/06/03 10:40:28;;;;;;;6.97;1.97;;;21.90;99.90;;;;;;5137198;27;20177;-45
2023/06/03 10:42:55;;;;;;;6.37;1.60;;;21.90;99.90;;;;;;5137232;27;20177;-46
2023/06/03 10:45:21;;;;;;;4.03;1.70;;;21.90;99.90;;;;;;5137499;27;20534;-45
2023/06/03 10:47:50;;;;;;;2.20;1.30;;;22.00;99.90;;;;;;5137158;27;20170;-44
2023/06/03 10:50:16;;;;;;;4.10;1.37;;;22.00;99.90;;;;;;5137280;27;20174;-46
2023/06/03 10:53:00;;;;;;;2.93;1.33;;;22.00;99.90;;;;;;5137059;27;20174;-44
2023/06/03 10:55:30;;;;;;;6.97;1.53;;;22.30;99.90;;;;;;5137027;27;20170;-46
2023/06/03 10:58:18;;;;;;;4.80;1.50;;;22.50;99.90;;;;;;5137008;27;20242;-45
2023/06/03 11:01:00;;;;;;;5.60;1.70;;;22.70;99.90;;;;;;5136833;27;20651;-44
2023/06/03 11:03:28;;;;;;;9.80;1.63;;;22.90;99.90;;;;;;5136862;27;20201;-44
2023/06/03 11:06:16;;;;;;;3.33;1.40;;;23.10;99.90;;;;;;5137122;27;20547;-45
2023/06/03 11:09:05;;;;;;;6.93;1.53;;;23.20;99.90;;;;;;5136815;27;20177;-46
2023/06/03 11:11:40;;;;;;;4.30;1.63;;;23.10;98.20;;;;;;5136826;27;20216;-44
2023/06/03 11:14:06;;;;;;;8.67;1.73;;;22.80;98.60;;;;;;5136375;27;20236;-44
2023/06/03 11:16:58;;;;;;;4.77;1.60;;;22.60;99.70;;;;;;5136602;27;20169;-45
2023/06/03 11:19:31;;;;;;;2.33;1.40;;;22.70;99.60;;;;;;5128248;27;20613;-46
2023/06/03 11:21:57;;;;;;;4.77;1.73;;;22.60;98.00;;;;;;5136641;27;20250;-46
2023/06/03 11:24:38;;;;;;;2.90;1.70;;;22.30;99.70;;;;;;5136676;27;20246;-45
2023/06/03 11:27:09;;;;;;;2.87;1.50;;;22.30;99.90;;;;;;5136482;27;20569;-47
2023/06/03 11:29:47;;;;;;;4.83;1.80;;;22.40;98.80;;;;;;5136639;27;20177;-45
2023/06/03 11:32:19;;;;;;;2.83;1.80;;;22.70;99.90;;;;;;5117728;27;20173;-45
2023/06/03 11:34:46;;;;;;;5.43;2.30;;;22.80;99.20;;;;;;5136514;27;20197;-44
2023/06/03 11:37:17;;;;;;;6.03;1.47;;;22.80;98.70;;;;;;5136452;27;20709;-45
2023/06/03 11:40:00;;;;;;;3.13;1.20;;;22.70;98.60;;;;;;5136502;27;20207;-44
2023/06/03 11:42:25;;;;;;;7.87;1.20;;;22.50;99.10;;;;;;5136082;27;20680;-45
2023/06/03 11:44:51;;;;;;;6.10;1.40;;;22.60;98.70;;;;;;5136238;27;20204;-46
2023/06/03 11:47:16;;;;;;;4.97;1.30;;;22.70;99.60;;;;;;5136160;27;20256;-46
2023/06/03 11:49:42;;;;;;;3.37;1.40;;;22.90;99.90;;;;;;5136999;27;20580;-46
2023/06/03 11:52:10;;;;;;;3.93;2.00;;;23.20;99.90;;;;;;5136772;27;20170;-44
2023/06/03 11:54:37;;;;;;;5.30;1.92;;;23.20;97.30;;;;;;5135895;27;20224;-44
2023/06/03 11:57:03;;;;;;;4.50;1.40;;;23.00;98.10;;;;;;5135858;27;20174;-45
2023/06/03 11:59:44;;;;;;;5.17;1.50;;;23.00;98.00;;;;;;5136006;27;20182;-51
2023/06/03 12:02:10;;;;;;;4.43;1.95;;;23.10;97.70;;;;;;5135918;27;20189;-49
2023/06/03 12:04:36;;;;;;;3.65;1.45;;;23.10;97.50;;;;;;5136036;27;20197;-50
2023/06/03 12:07:09;;;;;;;6.00;1.98;;;23.20;97.00;;;;;;5135494;27;20267;-51
2023/06/03 12:09:34;;;;;;;5.53;1.50;;;23.00;97.40;;;;;;5135776;27;20209;-51
2023/06/03 12:12:07;;;;;;;5.90;2.00;;;22.90;98.40;;;;;;5135783;27;20268;-50
2023/06/03 12:14:37;;;;;;;2.88;1.40;;;22.90;96.60;;;;;;5135250;27;20293;-50
2023/06/03 12:17:09;;;;;;;8.32;1.63;;;22.90;98.30;;;;;;5135627;27;20166;-50
2023/06/03 12:19:39;;;;;;;3.55;1.45;;;23.00;97.80;;;;;;5135572;27;20234;-50
2023/06/03 12:22:05;;;;;;;4.32;1.60;;;23.20;97.50;;;;;;5135492;27;20193;-50
2023/06/03 12:24:32;;;;;;;3.90;1.73;;;23.20;96.60;;;;;;5135435;27;20189;-50
2023/06/03 12:27:13;;;;;;;5.13;1.50;;;23.20;98.70;;;;;;5134628;27;20213;-52
2023/06/03 12:29:59;;;;;;;3.45;1.70;;;23.10;96.20;;;;;;5135470;27;20162;-51
2023/06/03 12:32:31;;;;;;;7.20;1.60;;;23.00;96.70;;;;;;5134999;27;20181;-50
2023/06/03 12:34:57;;;;;;;2.35;1.48;;;23.10;97.80;;;;;;5135249;27;20198;-50
2023/06/03 12:37:30;;;;;;;2.50;1.60;;;23.20;96.80;;;;;;5135296;27;20272;-51
2023/06/03 12:39:57;;;;;;;6.15;1.48;;;23.20;96.30;;;;;;5135253;27;20627;-51
2023/06/03 12:42:43;;;;;;;3.03;1.73;;;23.10;95.50;;;;;;5135092;27;20197;-51
2023/06/03 12:45:09;;;;;;;3.85;1.60;;;23.10;96.10;;;;;;5135057;27;20204;-50
2023/06/03 12:47:46;;;;;;;6.55;1.70;;;23.10;97.00;;;;;;5134805;27;20197;-51
2023/06/03 12:50:13;;;;;;;3.75;1.60;;;23.10;96.50;;;;;;5134756;27;20188;-50
2023/06/03 12:52:39;;;;;;;3.28;1.98;;;23.20;96.60;;;;;;5135031;27;20745;-50